sensor_id;sensor_type;location;lat;lon;timestamp;pressure;altitude;pressure_sealevel;temperature;humidity
42887;BME280;29032;56.028;92.904;2023-11-21T00:00:55;101148.47;;;-13.85;46.04
42887;BME280;29032;56.028;92.904;2023-11-21T00:05:58;101155.94;;;-13.94;45.84
42887;BME280;29032;56.028;92.904;2023-11-21T00:11:00;101177.00;;;-13.96;46.51
42887;BME280;29032;56.028;92.904;2023-11-21T00:16:03;101181.78;;;-13.90;46.33
42887;BME280;29032;56.028;92.904;2023-11-21T00:21:07;101198.72;;;-13.89;46.56
42887;BME280;29032;56.028;92.904;2023-11-21T00:26:09;101217.28;;;-13.84;45.79
42887;BME280;29032;56.028;92.904;2023-11-21T00:31:11;101218.84;;;-13.83;43.57
42887;BME280;29032;56.028;92.904;2023-11-21T00:36:16;101234.13;;;-14.03;42.61
42887;BME280;29032;56.028;92.904;2023-11-21T00:41:18;101255.13;;;-14.49;41.92
42887;BME280;29032;56.028;92.904;2023-11-21T00:46:20;101241.78;;;-14.98;42.73
42887;BME280;29032;56.028;92.904;2023-11-21T00:51:25;101249.91;;;-14.70;42.48
42887;BME280;29032;56.028;92.904;2023-11-21T00:56:28;101259.09;;;-14.71;41.65
42887;BME280;29032;56.028;92.904;2023-11-21T01:01:30;101275.69;;;-15.05;42.03
42887;BME280;29032;56.028;92.904;2023-11-21T01:06:33;101288.16;;;-15.58;42.85
42887;BME280;29032;56.028;92.904;2023-11-21T01:11:36;101286.22;;;-16.03;44.61
42887;BME280;29032;56.028;92.904;2023-11-21T01:16:38;101305.50;;;-15.89;44.28
42887;BME280;29032;56.028;92.904;2023-11-21T01:21:41;101309.31;;;-16.11;44.50
42887;BME280;29032;56.028;92.904;2023-11-21T01:26:44;101308.97;;;-15.88;44.94
42887;BME280;29032;56.028;92.904;2023-11-21T01:31:46;101337.53;;;-15.72;44.57
42887;BME280;29032;56.028;92.904;2023-11-21T01:36:49;101350.47;;;-15.74;44.87
42887;BME280;29032;56.028;92.904;2023-11-21T01:41:51;101362.38;;;-15.62;44.38
42887;BME280;29032;56.028;92.904;2023-11-21T01:46:53;101374.97;;;-15.42;44.40
42887;BME280;29032;56.028;92.904;2023-11-21T01:51:57;101391.75;;;-15.33;44.01
42887;BME280;29032;56.028;92.904;2023-11-21T01:57:00;101403.47;;;-15.50;44.46
42887;BME280;29032;56.028;92.904;2023-11-21T02:02:03;101411.13;;;-15.60;44.40
42887;BME280;29032;56.028;92.904;2023-11-21T02:07:07;101420.84;;;-15.35;43.04
42887;BME280;29032;56.028;92.904;2023-11-21T02:12:10;101451.16;;;-15.34;41.55
42887;BME280;29032;56.028;92.904;2023-11-21T02:17:12;101468.63;;;-15.49;41.06
42887;BME280;29032;56.028;92.904;2023-11-21T02:22:17;101477.41;;;-15.40;41.83
42887;BME280;29032;56.028;92.904;2023-11-21T02:27:22;101496.63;;;-15.59;41.23
42887;BME280;29032;56.028;92.904;2023-11-21T02:32:24;101477.91;;;-15.68;41.31
42887;BME280;29032;56.028;92.904;2023-11-21T02:37:26;101515.41;;;-15.38;39.94
42887;BME280;29032;56.028;92.904;2023-11-21T02:42:30;101521.53;;;-15.50;40.94
42887;BME280;29032;56.028;92.904;2023-11-21T02:47:32;101534.22;;;-15.38;41.37
42887;BME280;29032;56.028;92.904;2023-11-21T02:52:34;101531.34;;;-15.33;39.21
42887;BME280;29032;56.028;92.904;2023-11-21T02:57:37;101537.09;;;-15.64;40.27
42887;BME280;29032;56.028;92.904;2023-11-21T03:02:40;101555.09;;;-15.73;39.57
42887;BME280;29032;56.028;92.904;2023-11-21T03:07:42;101555.56;;;-16.01;39.76
42887;BME280;29032;56.028;92.904;2023-11-21T03:12:45;101566.19;;;-16.51;40.39
42887;BME280;29032;56.028;92.904;2023-11-21T03:17:47;101569.03;;;-16.47;39.97
42887;BME280;29032;56.028;92.904;2023-11-21T03:22:49;101596.53;;;-16.30;40.64
42887;BME280;29032;56.028;92.904;2023-11-21T03:27:53;101596.59;;;-16.09;40.66
42887;BME280;29032;56.028;92.904;2023-11-21T03:32:56;101603.31;;;-15.94;40.33
42887;BME280;29032;56.028;92.904;2023-11-21T03:37:58;101605.50;;;-15.79;39.98
42887;BME280;29032;56.028;92.904;2023-11-21T03:43:01;101602.88;;;-15.66;40.45
42887;BME280;29032;56.028;92.904;2023-11-21T03:48:03;101635.38;;;-15.59;40.36
42887;BME280;29032;56.028;92.904;2023-11-21T03:53:06;101629.66;;;-15.49;40.47
42887;BME280;29032;56.028;92.904;2023-11-21T03:58:09;101647.53;;;-15.32;39.36
42887;BME280;29032;56.028;92.904;2023-11-21T04:03:11;101655.47;;;-15.74;40.02
42887;BME280;29032;56.028;92.904;2023-11-21T04:08:13;101657.31;;;-16.04;40.72
42887;BME280;29032;56.028;92.904;2023-11-21T04:13:17;101676.22;;;-15.92;40.88
42887;BME280;29032;56.028;92.904;2023-11-21T04:18:19;101691.13;;;-15.74;40.31
42887;BME280;29032;56.028;92.904;2023-11-21T04:23:21;101700.91;;;-15.69;39.52
42887;BME280;29032;56.028;92.904;2023-11-21T04:28:25;101709.44;;;-15.29;40.07
42887;BME280;29032;56.028;92.904;2023-11-21T04:33:27;101710.53;;;-15.00;39.02
42887;BME280;29032;56.028;92.904;2023-11-21T04:38:29;101727.22;;;-15.24;39.00
42887;BME280;29032;56.028;92.904;2023-11-21T04:43:32;101719.19;;;-15.62;38.69
42887;BME280;29032;56.028;92.904;2023-11-21T04:48:34;101726.50;;;-15.72;39.60
42887;BME280;29032;56.028;92.904;2023-11-21T04:53:37;101725.59;;;-15.46;39.39
42887;BME280;29032;56.028;92.904;2023-11-21T04:58:40;101738.34;;;-15.34;39.23
42887;BME280;29032;56.028;92.904;2023-11-21T05:03:42;101739.41;;;-14.97;39.09
42887;BME280;29032;56.028;92.904;2023-11-21T05:08:44;101750.63;;;-14.95;38.63
42887;BME280;29032;56.028;92.904;2023-11-21T05:13:48;101756.25;;;-15.09;38.81
42887;BME280;29032;56.028;92.904;2023-11-21T05:18:50;101756.53;;;-15.40;39.25
42887;BME280;29032;56.028;92.904;2023-11-21T05:23:53;101768.81;;;-15.39;39.10
42887;BME280;29032;56.028;92.904;2023-11-21T05:28:56;101766.84;;;-15.13;38.65
42887;BME280;29032;56.028;92.904;2023-11-21T05:33:58;101777.94;;;-15.23;38.65
42887;BME280;29032;56.028;92.904;2023-11-21T05:39:00;101780.88;;;-15.07;38.32
42887;BME280;29032;56.028;92.904;2023-11-21T05:44:04;101785.50;;;-14.87;38.25
42887;BME280;29032;56.028;92.904;2023-11-21T05:49:06;101789.50;;;-14.93;38.18
42887;BME280;29032;56.028;92.904;2023-11-21T05:54:08;101803.69;;;-14.92;38.35
42887;BME280;29032;56.028;92.904;2023-11-21T05:59:12;101805.38;;;-15.08;37.86
42887;BME280;29032;56.028;92.904;2023-11-21T06:04:14;101801.00;;;-15.22;38.60
42887;BME280;29032;56.028;92.904;2023-11-21T06:09:16;101817.97;;;-15.00;38.68
42887;BME280;29032;56.028;92.904;2023-11-21T06:14:20;101825.72;;;-15.07;38.13
42887;BME280;29032;56.028;92.904;2023-11-21T06:19:22;101812.88;;;-14.93;38.36
42887;BME280;29032;56.028;92.904;2023-11-21T06:24:24;101818.63;;;-14.44;38.54
42887;BME280;29032;56.028;92.904;2023-11-21T06:29:27;101826.19;;;-14.05;37.05
42887;BME280;29032;56.028;92.904;2023-11-21T06:34:29;101820.03;;;-14.26;36.78
42887;BME280;29032;56.028;92.904;2023-11-21T06:39:31;101830.09;;;-14.35;36.63
42887;BME280;29032;56.028;92.904;2023-11-21T06:44:35;101831.72;;;-14.43;36.45
42887;BME280;29032;56.028;92.904;2023-11-21T06:49:37;101829.09;;;-14.51;36.93
42887;BME280;29032;56.028;92.904;2023-11-21T06:54:39;101835.63;;;-14.19;37.40
42887;BME280;29032;56.028;92.904;2023-11-21T06:59:43;101855.41;;;-13.94;36.98
42887;BME280;29032;56.028;92.904;2023-11-21T07:04:45;101863.25;;;-13.89;36.65
42887;BME280;29032;56.028;92.904;2023-11-21T07:09:47;101868.91;;;-13.82;36.91
42887;BME280;29032;56.028;92.904;2023-11-21T07:14:51;101871.63;;;-13.70;36.49
42887;BME280;29032;56.028;92.904;2023-11-21T07:19:53;101880.31;;;-13.31;37.31
42887;BME280;29032;56.028;92.904;2023-11-21T07:24:55;101880.41;;;-12.95;35.89
42887;BME280;29032;56.028;92.904;2023-11-21T07:29:59;101889.97;;;-12.73;39.46
42887;BME280;29032;56.028;92.904;2023-11-21T07:35:01;101898.59;;;-12.92;36.35
42887;BME280;29032;56.028;92.904;2023-11-21T07:40:03;101909.34;;;-12.92;40.25
42887;BME280;29032;56.028;92.904;2023-11-21T07:45:08;101910.72;;;-12.85;36.35
42887;BME280;29032;56.028;92.904;2023-11-21T07:50:10;101921.53;;;-12.73;36.45
42887;BME280;29032;56.028;92.904;2023-11-21T07:55:13;101929.34;;;-12.93;36.01
42887;BME280;29032;56.028;92.904;2023-11-21T08:00:17;101936.00;;;-13.23;35.59
42887;BME280;29032;56.028;92.904;2023-11-21T08:05:19;101932.38;;;-13.39;35.73
42887;BME280;29032;56.028;92.904;2023-11-21T08:10:21;101935.56;;;-13.25;36.18
42887;BME280;29032;56.028;92.904;2023-11-21T08:15:27;101941.66;;;-13.16;34.85
42887;BME280;29032;56.028;92.904;2023-11-21T08:20:29;101950.63;;;-13.66;35.88
42887;BME280;29032;56.028;92.904;2023-11-21T08:25:31;101965.72;;;-13.73;36.58
42887;BME280;29032;56.028;92.904;2023-11-21T08:30:35;101965.47;;;-13.60;35.49
42887;BME280;29032;56.028;92.904;2023-11-21T08:35:37;101965.19;;;-13.88;36.37
42887;BME280;29032;56.028;92.904;2023-11-21T08:40:40;101976.50;;;-13.73;37.62
42887;BME280;29032;56.028;92.904;2023-11-21T08:45:43;101988.56;;;-13.59;36.47
42887;BME280;29032;56.028;92.904;2023-11-21T08:50:46;101994.53;;;-13.74;36.00
42887;BME280;29032;56.028;92.904;2023-11-21T08:55:48;102000.63;;;-13.86;36.87
42887;BME280;29032;56.028;92.904;2023-11-21T09:00:52;102010.47;;;-13.69;36.23
42887;BME280;29032;56.028;92.904;2023-11-21T09:05:54;102039.59;;;-13.41;36.05
42887;BME280;29032;56.028;92.904;2023-11-21T09:10:56;102040.53;;;-13.37;35.54
42887;BME280;29032;56.028;92.904;2023-11-21T09:16:00;102038.59;;;-13.58;36.43
42887;BME280;29032;56.028;92.904;2023-11-21T09:21:02;102051.47;;;-13.63;36.89
42887;BME280;29032;56.028;92.904;2023-11-21T09:26:04;102056.03;;;-13.85;36.63
42887;BME280;29032;56.028;92.904;2023-11-21T09:31:08;102061.91;;;-13.91;36.45
42887;BME280;29032;56.028;92.904;2023-11-21T09:36:13;102057.41;;;-14.08;37.21
42887;BME280;29032;56.028;92.904;2023-11-21T09:41:20;102072.44;;;-13.78;39.09
42887;BME280;29032;56.028;92.904;2023-11-21T09:46:25;102076.63;;;-13.89;38.29
42887;BME280;29032;56.028;92.904;2023-11-21T09:51:30;102083.31;;;-13.95;36.94
42887;BME280;29032;56.028;92.904;2023-11-21T09:56:33;102087.91;;;-13.95;36.97
42887;BME280;29032;56.028;92.904;2023-11-21T10:01:37;102090.66;;;-13.83;36.94
42887;BME280;29032;56.028;92.904;2023-11-21T10:06:41;102095.47;;;-13.97;37.08
42887;BME280;29032;56.028;92.904;2023-11-21T10:11:43;102101.66;;;-14.35;37.58
42887;BME280;29032;56.028;92.904;2023-11-21T10:16:49;102109.25;;;-14.37;37.91
42887;BME280;29032;56.028;92.904;2023-11-21T10:21:51;102119.16;;;-14.29;38.23
42887;BME280;29032;56.028;92.904;2023-11-21T10:26:53;102121.75;;;-13.94;37.52
42887;BME280;29032;56.028;92.904;2023-11-21T10:31:57;102130.81;;;-14.08;37.46
42887;BME280;29032;56.028;92.904;2023-11-21T10:37:11;102132.06;;;-14.05;38.09
42887;BME280;29032;56.028;92.904;2023-11-21T10:42:13;102137.03;;;-14.24;37.69
42887;BME280;29032;56.028;92.904;2023-11-21T10:47:17;102141.53;;;-14.37;38.51
42887;BME280;29032;56.028;92.904;2023-11-21T10:52:19;102150.91;;;-14.14;37.53
42887;BME280;29032;56.028;92.904;2023-11-21T10:57:23;102141.94;;;-14.26;37.66
42887;BME280;29032;56.028;92.904;2023-11-21T11:02:26;102162.19;;;-14.29;37.72
42887;BME280;29032;56.028;92.904;2023-11-21T11:07:29;102167.84;;;-14.13;37.95
42887;BME280;29032;56.028;92.904;2023-11-21T11:12:32;102175.97;;;-14.31;37.28
42887;BME280;29032;56.028;92.904;2023-11-21T11:17:37;102188.34;;;-14.38;37.75
42887;BME280;29032;56.028;92.904;2023-11-21T11:22:44;102192.88;;;-14.30;37.67
42887;BME280;29032;56.028;92.904;2023-11-21T11:27:54;102195.78;;;-14.44;38.01
42887;BME280;29032;56.028;92.904;2023-11-21T11:33:07;102191.63;;;-14.76;38.05
42887;BME280;29032;56.028;92.904;2023-11-21T11:38:11;102191.13;;;-14.95;38.75
42887;BME280;29032;56.028;92.904;2023-11-21T11:43:16;102199.38;;;-14.83;38.95
42887;BME280;29032;56.028;92.904;2023-11-21T11:48:27;102209.19;;;-14.70;38.30
42887;BME280;29032;56.028;92.904;2023-11-21T11:53:36;102215.03;;;-14.85;39.32
42887;BME280;29032;56.028;92.904;2023-11-21T11:58:41;102201.13;;;-14.61;39.17
42887;BME280;29032;56.028;92.904;2023-11-21T12:03:47;102215.84;;;-14.41;38.38
42887;BME280;29032;56.028;92.904;2023-11-21T12:09:12;102205.72;;;-14.44;38.81
42887;BME280;29032;56.028;92.904;2023-11-21T12:14:19;102222.50;;;-14.65;38.58
42887;BME280;29032;56.028;92.904;2023-11-21T12:19:23;102225.25;;;-14.96;38.61
42887;BME280;29032;56.028;92.904;2023-11-21T12:24:25;102230.13;;;-15.15;39.55
42887;BME280;29032;56.028;92.904;2023-11-21T12:29:27;102240.44;;;-15.08;39.75
42887;BME280;29032;56.028;92.904;2023-11-21T12:34:31;102252.78;;;-14.90;39.22
42887;BME280;29032;56.028;92.904;2023-11-21T12:39:33;102246.97;;;-14.75;39.71
42887;BME280;29032;56.028;92.904;2023-11-21T12:44:35;102250.16;;;-14.55;38.74
42887;BME280;29032;56.028;92.904;2023-11-21T12:49:39;102261.56;;;-14.41;38.70
42887;BME280;29032;56.028;92.904;2023-11-21T12:54:41;102260.56;;;-14.80;38.89
42887;BME280;29032;56.028;92.904;2023-11-21T12:59:45;102274.50;;;-15.18;39.34
42887;BME280;29032;56.028;92.904;2023-11-21T13:04:53;102276.19;;;-15.61;40.24
42887;BME280;29032;56.028;92.904;2023-11-21T13:09:55;102287.59;;;-15.56;40.34
42887;BME280;29032;56.028;92.904;2023-11-21T13:15:04;102291.81;;;-15.63;40.31
42887;BME280;29032;56.028;92.904;2023-11-21T13:20:08;102294.31;;;-15.67;40.71
42887;BME280;29032;56.028;92.904;2023-11-21T13:25:10;102292.28;;;-15.61;41.00
42887;BME280;29032;56.028;92.904;2023-11-21T13:30:13;102298.72;;;-15.40;40.89
42887;BME280;29032;56.028;92.904;2023-11-21T13:35:18;102300.88;;;-14.80;40.53
42887;BME280;29032;56.028;92.904;2023-11-21T13:40:21;102287.94;;;-14.26;39.66
42887;BME280;29032;56.028;92.904;2023-11-21T13:45:23;102287.78;;;-14.12;38.72
42887;BME280;29032;56.028;92.904;2023-11-21T13:50:27;102283.19;;;-13.94;39.41
42887;BME280;29032;56.028;92.904;2023-11-21T13:55:29;102270.81;;;-13.78;38.68
42887;BME280;29032;56.028;92.904;2023-11-21T14:00:31;102273.78;;;-13.54;38.27
42887;BME280;29032;56.028;92.904;2023-11-21T14:05:34;102273.88;;;-13.41;38.18
42887;BME280;29032;56.028;92.904;2023-11-21T14:10:37;102282.47;;;-13.39;38.40
42887;BME280;29032;56.028;92.904;2023-11-21T14:15:39;102291.59;;;-13.23;38.09
42887;BME280;29032;56.028;92.904;2023-11-21T14:20:43;102294.03;;;-13.01;37.09
42887;BME280;29032;56.028;92.904;2023-11-21T14:25:45;102302.22;;;-12.88;39.51
42887;BME280;29032;56.028;92.904;2023-11-21T14:30:47;102315.78;;;-12.76;39.77
42887;BME280;29032;56.028;92.904;2023-11-21T14:35:51;102313.97;;;-12.64;40.24
42887;BME280;29032;56.028;92.904;2023-11-21T14:40:53;102307.50;;;-12.71;38.05
42887;BME280;29032;56.028;92.904;2023-11-21T14:45:55;102319.31;;;-12.84;37.71
42887;BME280;29032;56.028;92.904;2023-11-21T14:50:58;102326.81;;;-12.90;38.01
42887;BME280;29032;56.028;92.904;2023-11-21T14:56:01;102324.78;;;-13.02;38.01
42887;BME280;29032;56.028;92.904;2023-11-21T15:01:03;102335.84;;;-12.95;37.71
42887;BME280;29032;56.028;92.904;2023-11-21T15:06:07;102334.22;;;-12.87;37.93
42887;BME280;29032;56.028;92.904;2023-11-21T15:11:10;102338.78;;;-12.79;37.89
42887;BME280;29032;56.028;92.904;2023-11-21T15:16:13;102340.50;;;-12.74;37.56
42887;BME280;29032;56.028;92.904;2023-11-21T15:21:16;102344.41;;;-12.63;37.40
42887;BME280;29032;56.028;92.904;2023-11-21T15:26:18;102348.03;;;-12.59;37.29
42887;BME280;29032;56.028;92.904;2023-11-21T15:31:20;102356.41;;;-12.52;36.81
42887;BME280;29032;56.028;92.904;2023-11-21T15:36:24;102367.03;;;-12.47;36.75
42887;BME280;29032;56.028;92.904;2023-11-21T15:41:26;102370.19;;;-12.45;36.93
42887;BME280;29032;56.028;92.904;2023-11-21T15:46:28;102358.09;;;-12.39;36.62
42887;BME280;29032;56.028;92.904;2023-11-21T15:51:32;102369.34;;;-12.37;36.19
42887;BME280;29032;56.028;92.904;2023-11-21T15:56:34;102375.66;;;-12.32;36.30
42887;BME280;29032;56.028;92.904;2023-11-21T16:01:36;102377.16;;;-12.44;36.56
42887;BME280;29032;56.028;92.904;2023-11-21T16:06:40;102385.69;;;-12.42;36.50
42887;BME280;29032;56.028;92.904;2023-11-21T16:11:41;102390.28;;;-12.33;36.45
42887;BME280;29032;56.028;92.904;2023-11-21T16:16:44;102395.00;;;-12.30;35.63
42887;BME280;29032;56.028;92.904;2023-11-21T16:21:47;102389.94;;;-12.32;35.91
42887;BME280;29032;56.028;92.904;2023-11-21T16:26:50;102397.72;;;-12.30;36.29
42887;BME280;29032;56.028;92.904;2023-11-21T16:31:52;102400.56;;;-12.27;36.15
42887;BME280;29032;56.028;92.904;2023-11-21T16:36:56;102396.31;;;-12.37;36.34
42887;BME280;29032;56.028;92.904;2023-11-21T16:41:58;102402.53;;;-12.45;36.29
42887;BME280;29032;56.028;92.904;2023-11-21T16:47:00;102401.59;;;-12.49;36.05
42887;BME280;29032;56.028;92.904;2023-11-21T16:52:04;102399.25;;;-12.50;36.46
42887;BME280;29032;56.028;92.904;2023-11-21T16:57:06;102409.66;;;-12.78;37.22
42887;BME280;29032;56.028;92.904;2023-11-21T17:02:08;102414.13;;;-12.82;37.36
42887;BME280;29032;56.028;92.904;2023-11-21T17:07:14;102411.16;;;-12.89;38.32
42887;BME280;29032;56.028;92.904;2023-11-21T17:12:16;102421.13;;;-12.99;38.60
42887;BME280;29032;56.028;92.904;2023-11-21T17:17:18;102421.00;;;-13.02;39.01
42887;BME280;29032;56.028;92.904;2023-11-21T17:22:22;102418.31;;;-13.02;38.90
42887;BME280;29032;56.028;92.904;2023-11-21T17:27:24;102418.63;;;-13.04;38.94
42887;BME280;29032;56.028;92.904;2023-11-21T17:32:26;102419.25;;;-13.07;38.74
42887;BME280;29032;56.028;92.904;2023-11-21T17:37:29;102410.38;;;-12.99;38.72
42887;BME280;29032;56.028;92.904;2023-11-21T17:42:32;102404.19;;;-12.99;39.63
42887;BME280;29032;56.028;92.904;2023-11-21T17:47:34;102416.84;;;-12.91;38.92
42887;BME280;29032;56.028;92.904;2023-11-21T17:52:37;102420.81;;;-12.88;39.06
42887;BME280;29032;56.028;92.904;2023-11-21T17:57:39;102419.22;;;-12.89;38.92
42887;BME280;29032;56.028;92.904;2023-11-21T18:02:41;102419.22;;;-12.89;38.84
42887;BME280;29032;56.028;92.904;2023-11-21T18:07:45;102426.03;;;-12.92;38.81
42887;BME280;29032;56.028;92.904;2023-11-21T18:12:47;102427.47;;;-12.95;38.87
42887;BME280;29032;56.028;92.904;2023-11-21T18:17:49;102420.03;;;-12.98;38.59
42887;BME280;29032;56.028;92.904;2023-11-21T18:22:53;102429.53;;;-12.92;38.67
42887;BME280;29032;56.028;92.904;2023-11-21T18:27:55;102425.13;;;-12.96;38.67
42887;BME280;29032;56.028;92.904;2023-11-21T18:32:57;102420.50;;;-12.96;38.87
42887;BME280;29032;56.028;92.904;2023-11-21T18:38:01;102420.81;;;-12.88;39.05
42887;BME280;29032;56.028;92.904;2023-11-21T18:43:03;102430.00;;;-12.89;38.48
42887;BME280;29032;56.028;92.904;2023-11-21T18:48:05;102417.50;;;-12.94;39.14
42887;BME280;29032;56.028;92.904;2023-11-21T18:53:08;102431.78;;;-13.02;39.26
42887;BME280;29032;56.028;92.904;2023-11-21T18:58:10;102428.31;;;-13.11;39.77
42887;BME280;29032;56.028;92.904;2023-11-21T19:03:12;102426.22;;;-13.06;39.71
42887;BME280;29032;56.028;92.904;2023-11-21T19:08:16;102418.94;;;-12.97;39.39
42887;BME280;29032;56.028;92.904;2023-11-21T19:13:18;102421.31;;;-12.95;39.40
42887;BME280;29032;56.028;92.904;2023-11-21T19:18:20;102430.63;;;-12.93;39.87
42887;BME280;29032;56.028;92.904;2023-11-21T19:23:23;102429.06;;;-12.94;39.79
42887;BME280;29032;56.028;92.904;2023-11-21T19:28:26;102432.72;;;-12.98;39.68
42887;BME280;29032;56.028;92.904;2023-11-21T19:33:28;102430.22;;;-13.03;39.76
42887;BME280;29032;56.028;92.904;2023-11-21T19:38:32;102428.09;;;-12.98;40.30
42887;BME280;29032;56.028;92.904;2023-11-21T19:43:35;102431.28;;;-12.96;40.16
42887;BME280;29032;56.028;92.904;2023-11-21T19:48:37;102425.41;;;-12.89;40.19
42887;BME280;29032;56.028;92.904;2023-11-21T19:53:41;102429.34;;;-12.86;40.50
42887;BME280;29032;56.028;92.904;2023-11-21T19:58:43;102436.19;;;-12.89;39.65
42887;BME280;29032;56.028;92.904;2023-11-21T20:03:45;102436.22;;;-13.06;40.69
42887;BME280;29032;56.028;92.904;2023-11-21T20:08:49;102433.09;;;-13.17;40.57
42887;BME280;29032;56.028;92.904;2023-11-21T20:13:51;102440.22;;;-13.21;40.24
42887;BME280;29032;56.028;92.904;2023-11-21T20:18:53;102453.69;;;-13.21;40.14
42887;BME280;29032;56.028;92.904;2023-11-21T20:23:57;102446.75;;;-13.39;40.59
42887;BME280;29032;56.028;92.904;2023-11-21T20:28:59;102447.97;;;-13.54;41.36
42887;BME280;29032;56.028;92.904;2023-11-21T20:34:01;102439.91;;;-13.63;40.56
42887;BME280;29032;56.028;92.904;2023-11-21T20:39:04;102441.03;;;-13.64;40.83
42887;BME280;29032;56.028;92.904;2023-11-21T20:44:06;102446.09;;;-13.71;40.84
42887;BME280;29032;56.028;92.904;2023-11-21T20:49:09;102438.00;;;-13.88;40.76
42887;BME280;29032;56.028;92.904;2023-11-21T20:54:12;102443.38;;;-13.88;41.52
42887;BME280;29032;56.028;92.904;2023-11-21T20:59:14;102445.59;;;-13.90;41.68
42887;BME280;29032;56.028;92.904;2023-11-21T21:04:16;102447.00;;;-13.93;41.42
42887;BME280;29032;56.028;92.904;2023-11-21T21:09:20;102434.03;;;-13.91;41.38
42887;BME280;29032;56.028;92.904;2023-11-21T21:14:22;102430.41;;;-13.86;41.11
42887;BME280;29032;56.028;92.904;2023-11-21T21:19:24;102442.59;;;-13.80;41.09
42887;BME280;29032;56.028;92.904;2023-11-21T21:24:28;102439.91;;;-13.80;40.74
42887;BME280;29032;56.028;92.904;2023-11-21T21:29:30;102439.25;;;-13.94;40.68
42887;BME280;29032;56.028;92.904;2023-11-21T21:34:32;102431.31;;;-14.08;41.15
42887;BME280;29032;56.028;92.904;2023-11-21T21:39:36;102425.63;;;-14.07;40.93
42887;BME280;29032;56.028;92.904;2023-11-21T21:44:38;102411.69;;;-14.09;40.71
42887;BME280;29032;56.028;92.904;2023-11-21T21:49:40;102403.47;;;-14.04;40.97
42887;BME280;29032;56.028;92.904;2023-11-21T21:54:43;102409.81;;;-13.99;40.48
42887;BME280;29032;56.028;92.904;2023-11-21T21:59:45;102412.63;;;-14.05;40.66
42887;BME280;29032;56.028;92.904;2023-11-21T22:04:47;102406.00;;;-14.07;40.69
42887;BME280;29032;56.028;92.904;2023-11-21T22:09:51;102409.47;;;-14.07;40.72
42887;BME280;29032;56.028;92.904;2023-11-21T22:14:53;102403.13;;;-14.11;41.02
42887;BME280;29032;56.028;92.904;2023-11-21T22:19:55;102407.44;;;-14.10;41.50
42887;BME280;29032;56.028;92.904;2023-11-21T22:24:59;102408.38;;;-14.06;40.92
42887;BME280;29032;56.028;92.904;2023-11-21T22:30:01;102418.03;;;-14.05;40.87
42887;BME280;29032;56.028;92.904;2023-11-21T22:35:04;102431.47;;;-14.05;41.31
42887;BME280;29032;56.028;92.904;2023-11-21T22:40:09;102437.63;;;-14.04;40.75
42887;BME280;29032;56.028;92.904;2023-11-21T22:45:11;102421.50;;;-14.13;40.38
42887;BME280;29032;56.028;92.904;2023-11-21T22:50:13;102429.09;;;-14.15;40.96
42887;BME280;29032;56.028;92.904;2023-11-21T22:55:16;102429.88;;;-14.14;40.23
42887;BME280;29032;56.028;92.904;2023-11-21T23:00:19;102424.16;;;-14.21;40.49
42887;BME280;29032;56.028;92.904;2023-11-21T23:05:21;102425.59;;;-14.24;40.31
42887;BME280;29032;56.028;92.904;2023-11-21T23:10:24;102433.69;;;-14.15;40.24
42887;BME280;29032;56.028;92.904;2023-11-21T23:15:26;102436.53;;;-14.12;40.14
42887;BME280;29032;56.028;92.904;2023-11-21T23:20:29;102423.88;;;-14.11;40.14
42887;BME280;29032;56.028;92.904;2023-11-21T23:25:32;102417.69;;;-14.12;40.27
42887;BME280;29032;56.028;92.904;2023-11-21T23:30:34;102423.72;;;-14.15;40.52
42887;BME280;29032;56.028;92.904;2023-11-21T23:35:36;102417.69;;;-14.12;40.54
42887;BME280;29032;56.028;92.904;2023-11-21T23:40:40;102417.22;;;-14.05;40.64
42887;BME280;29032;56.028;92.904;2023-11-21T23:45:42;102419.59;;;-14.04;40.93
42887;BME280;29032;56.028;92.904;2023-11-21T23:50:44;102434.47;;;-14.06;40.38
42887;BME280;29032;56.028;92.904;2023-11-21T23:55:48;102437.97;;;-14.06;40.28
